createdAt,value
2022-10-23T00:01:36.665Z,78.37
2022-10-23T00:03:39.440Z,77.66
2022-10-23T00:05:42.230Z,77.52
2022-10-23T00:07:46.337Z,77.49
2022-10-23T00:09:49.035Z,76.94
2022-10-23T00:11:53.024Z,77.94
2022-10-23T00:13:57.891Z,77.95
2022-10-23T00:16:00.680Z,78.12
2022-10-23T00:18:03.522Z,78.17
2022-10-23T00:20:07.975Z,77.63
2022-10-23T00:22:12.609Z,77.50
2022-10-23T00:24:16.705Z,77.58
2022-10-23T00:26:20.124Z,77.73
2022-10-23T00:28:22.876Z,78.31
2022-10-23T00:30:25.738Z,77.95
2022-10-23T00:32:28.984Z,78.22
2022-10-23T00:34:31.862Z,78.32
2022-10-23T00:36:34.922Z,78.59
2022-10-23T00:38:38.956Z,78.78
2022-10-23T00:40:44.796Z,78.51
2022-10-23T00:42:47.599Z,78.71
2022-10-23T00:45:11.026Z,78.66
2022-10-23T00:47:14.908Z,78.76
2022-10-23T00:49:18.027Z,78.87
2022-10-23T00:51:21.118Z,78.46
2022-10-23T00:53:24.738Z,78.76
2022-10-23T00:55:28.288Z,78.26
2022-10-23T00:57:32.521Z,78.80
2022-10-23T00:59:35.818Z,78.50
2022-10-23T01:01:38.804Z,78.69
2022-10-23T01:03:41.983Z,78.38
2022-10-23T01:05:50.154Z,77.91
2022-10-23T01:07:57.662Z,78.38
2022-10-23T01:10:06.905Z,78.36
2022-10-23T01:12:16.484Z,78.57
2022-10-23T01:14:28.369Z,78.77
2022-10-23T01:16:40.629Z,78.91
2022-10-23T01:18:48.926Z,79.26
2022-10-23T01:20:58.034Z,78.77
2022-10-23T01:23:13.411Z,78.88
2022-10-23T01:25:30.031Z,78.34
2022-10-23T01:27:37.528Z,79.06
2022-10-23T01:29:44.766Z,78.63
2022-10-23T01:31:51.354Z,78.60
2022-10-23T01:33:59.985Z,78.61
2022-10-23T01:36:06.775Z,79.07
2022-10-23T01:38:15.125Z,78.59
2022-10-23T01:40:24.961Z,78.97
2022-10-23T01:42:33.901Z,79.34
2022-10-23T01:44:42.849Z,79.00
2022-10-23T01:46:48.005Z,78.10
2022-10-23T01:48:54.217Z,78.75
2022-10-23T01:51:01.234Z,78.48
2022-10-23T01:53:04.691Z,78.12
2022-10-23T01:55:11.381Z,78.42
2022-10-23T01:57:18.818Z,77.98
2022-10-23T01:59:25.317Z,78.27
2022-10-23T02:01:32.689Z,78.30
2022-10-23T02:03:38.364Z,78.72
2022-10-23T02:05:41.185Z,78.22
2022-10-23T02:07:44.568Z,78.50
2022-10-23T02:09:47.814Z,78.15
2022-10-23T02:11:55.818Z,79.07
2022-10-23T02:14:04.295Z,79.20
2022-10-23T02:16:14.523Z,78.34
2022-10-23T02:18:35.385Z,78.55
2022-10-23T02:22:59.423Z,78.50
2022-10-23T02:25:09.976Z,78.84
2022-10-23T02:27:21.597Z,79.57
2022-10-23T02:29:32.516Z,78.79
2022-10-23T02:31:35.929Z,79.16
2022-10-23T02:33:40.640Z,79.14
2022-10-23T02:35:43.313Z,79.31
2022-10-23T02:37:57.409Z,79.28
2022-10-23T02:40:03.919Z,78.80
2022-10-23T02:42:22.192Z,78.58
2022-10-23T02:44:33.723Z,78.57
2022-10-23T02:46:45.214Z,78.66
2022-10-23T02:48:59.550Z,78.70
2022-10-23T02:51:07.259Z,78.84
2022-10-23T02:53:17.315Z,79.30
2022-10-23T02:55:32.413Z,78.96
2022-10-23T02:57:42.057Z,79.38
2022-10-23T02:59:53.355Z,78.69
2022-10-23T03:02:03.637Z,78.87
2022-10-23T03:04:11.565Z,78.99
2022-10-23T03:06:14.792Z,78.46
2022-10-23T03:08:17.527Z,79.06
2022-10-23T03:10:20.526Z,78.93
2022-10-23T03:12:23.454Z,78.77
2022-10-23T03:14:26.215Z,78.56
2022-10-23T03:16:29.147Z,78.38
2022-10-23T03:18:31.967Z,78.78
2022-10-23T03:20:37.071Z,78.66
2022-10-23T03:22:41.579Z,78.75
2022-10-23T03:24:45.060Z,79.22
2022-10-23T03:26:48.876Z,79.36
2022-10-23T03:28:51.625Z,79.36
2022-10-23T03:30:56.905Z,79.16
2022-10-23T03:33:00.050Z,79.31
2022-10-23T03:35:02.863Z,79.35
2022-10-23T03:37:07.120Z,79.50
2022-10-23T03:39:09.902Z,79.59
2022-10-23T03:41:12.700Z,79.57
2022-10-23T03:43:15.722Z,79.50
2022-10-23T03:45:18.566Z,79.67
2022-10-23T03:47:21.553Z,79.34
2022-10-23T03:49:24.534Z,79.56
2022-10-23T03:51:27.973Z,79.28
2022-10-23T03:53:32.070Z,79.12
2022-10-23T03:55:37.808Z,79.63
2022-10-23T03:57:40.621Z,78.96
2022-10-23T03:59:43.420Z,78.97
2022-10-23T04:01:47.154Z,79.43
2022-10-23T04:03:50.022Z,79.40
2022-10-23T04:05:53.138Z,79.97
2022-10-23T04:07:58.402Z,80.03
2022-10-23T04:10:02.849Z,80.06
2022-10-23T04:12:06.515Z,80.26
2022-10-23T04:14:11.772Z,79.73
2022-10-23T04:16:14.574Z,79.26
2022-10-23T04:18:17.529Z,79.11
2022-10-23T04:20:20.375Z,79.19
2022-10-23T04:22:25.935Z,78.93
2022-10-23T04:24:30.644Z,79.02
2022-10-23T04:26:34.835Z,77.99
2022-10-23T04:28:37.605Z,78.59
2022-10-23T04:30:41.534Z,78.16
2022-10-23T04:32:46.714Z,78.35
2022-10-23T04:34:51.244Z,78.74
2022-10-23T04:36:54.027Z,78.49
2022-10-23T04:38:56.773Z,78.49
2022-10-23T04:40:59.533Z,78.35
2022-10-23T04:43:04.228Z,78.44
2022-10-23T04:45:11.637Z,78.48
2022-10-23T04:47:17.147Z,78.42
2022-10-23T04:49:31.857Z,78.00
2022-10-23T04:51:53.676Z,78.30
2022-10-23T04:54:05.339Z,78.35
2022-10-23T04:56:26.550Z,78.69
2022-10-23T04:58:39.819Z,78.72
2022-10-23T05:00:44.040Z,78.96
2022-10-23T05:02:49.813Z,79.48
2022-10-23T05:04:53.307Z,79.69
2022-10-23T05:07:14.573Z,79.95
2022-10-23T05:09:36.802Z,80.13
2022-10-23T05:11:58.229Z,80.09
2022-10-23T05:14:02.394Z,79.86
2022-10-23T05:16:05.618Z,79.22
2022-10-23T05:18:15.957Z,78.79
2022-10-23T05:20:24.540Z,79.01
2022-10-23T05:22:31.482Z,79.18
2022-10-23T05:24:34.250Z,79.30
2022-10-23T05:26:38.473Z,79.17
2022-10-23T05:28:43.909Z,79.42
2022-10-23T05:30:52.062Z,79.21
2022-10-23T05:32:55.559Z,79.11
2022-10-23T05:35:04.017Z,79.58
2022-10-23T05:37:10.347Z,79.38
2022-10-23T05:39:15.309Z,79.51
2022-10-23T05:41:18.310Z,79.29
2022-10-23T05:43:21.396Z,78.81
2022-10-23T05:45:27.940Z,78.44
2022-10-23T05:47:50.824Z,79.12
2022-10-23T05:50:13.621Z,79.54
2022-10-23T05:52:40.813Z,79.57
2022-10-23T05:54:51.522Z,79.27
2022-10-23T05:59:27.285Z,78.33
2022-10-23T06:01:48.051Z,79.06
2022-10-23T06:04:01.241Z,79.07
2022-10-23T06:06:24.086Z,79.19
2022-10-23T06:08:26.881Z,79.50
2022-10-23T06:10:29.736Z,79.60
2022-10-23T06:12:35.616Z,79.50
2022-10-23T06:14:38.906Z,79.40
2022-10-23T06:16:41.846Z,79.54
2022-10-23T06:18:45.935Z,79.35
2022-10-23T06:20:52.422Z,79.45
2022-10-23T06:23:04.783Z,79.42
2022-10-23T06:25:26.256Z,79.33
2022-10-23T06:27:31.625Z,79.52
2022-10-23T06:29:34.462Z,79.35
2022-10-23T06:31:37.419Z,79.70
2022-10-23T06:33:41.359Z,79.30
2022-10-23T06:35:45.489Z,79.45
2022-10-23T06:37:51.152Z,79.64
2022-10-23T06:40:04.103Z,79.40
2022-10-23T06:42:16.014Z,79.44
2022-10-23T06:44:44.952Z,79.60
2022-10-23T06:46:52.490Z,79.25
2022-10-23T06:49:16.106Z,79.66
2022-10-23T06:51:23.907Z,79.42
2022-10-23T06:53:28.111Z,79.78
2022-10-23T06:55:41.025Z,79.32
2022-10-23T06:57:46.150Z,79.46
2022-10-23T06:59:49.239Z,79.52
2022-10-23T07:03:55.687Z,79.93
2022-10-23T07:06:02.976Z,79.68
2022-10-23T07:08:06.857Z,79.69
2022-10-23T07:10:17.117Z,79.73
2022-10-23T07:12:23.378Z,79.65
2022-10-23T07:14:36.045Z,79.50
2022-10-23T07:16:39.270Z,79.69
2022-10-23T07:18:42.376Z,79.49
2022-10-23T07:20:59.605Z,79.72
2022-10-23T07:23:02.532Z,79.58
2022-10-23T07:25:11.569Z,79.47
2022-10-23T07:27:16.506Z,80.15
2022-10-23T07:29:20.276Z,79.89
2022-10-23T07:31:28.144Z,80.93
2022-10-23T07:34:10.816Z,81.04
2022-10-23T07:36:13.738Z,80.63
2022-10-23T07:38:17.653Z,80.37
2022-10-23T07:40:25.789Z,80.43
2022-10-23T07:42:33.170Z,81.15
2022-10-23T07:44:35.978Z,80.81
2022-10-23T07:46:38.750Z,80.89
2022-10-23T07:48:43.207Z,80.17
2022-10-23T07:50:46.848Z,79.64
2022-10-23T07:52:49.586Z,80.64
2022-10-23T07:54:53.598Z,80.30
2022-10-23T07:56:57.171Z,80.71
2022-10-23T07:59:12.524Z,80.45
2022-10-23T08:01:20.045Z,79.91
2022-10-23T08:03:23.015Z,79.19
2022-10-23T08:05:26.706Z,79.02
2022-10-23T08:07:34.657Z,78.43
2022-10-23T08:09:38.019Z,79.53
2022-10-23T08:11:40.787Z,79.80
2022-10-23T08:13:44.805Z,79.46
2022-10-23T08:15:51.046Z,79.49
2022-10-23T08:18:17.507Z,79.87
2022-10-23T08:20:21.091Z,79.01
2022-10-23T08:22:23.843Z,78.83
2022-10-23T08:24:26.786Z,78.81
2022-10-23T08:26:30.365Z,78.63
2022-10-23T08:28:33.845Z,78.33
2022-10-23T08:30:38.825Z,78.77
2022-10-23T08:32:43.229Z,79.38
2022-10-23T08:34:48.133Z,78.31
2022-10-23T08:36:51.087Z,78.77
2022-10-23T08:38:56.042Z,78.94
2022-10-23T08:41:01.435Z,79.06
2022-10-23T08:43:34.471Z,78.95
2022-10-23T08:45:56.778Z,78.78
2022-10-23T08:48:40.165Z,78.30
2022-10-23T08:51:12.467Z,79.09
2022-10-23T08:53:19.776Z,78.70
2022-10-23T08:55:27.546Z,78.55
2022-10-23T08:57:38.755Z,78.01
2022-10-23T08:59:48.149Z,79.18
2022-10-23T09:01:56.945Z,79.03
2022-10-23T09:04:01.524Z,78.70
2022-10-23T09:06:28.757Z,78.36
2022-10-23T09:08:45.590Z,79.64
2022-10-23T09:11:03.379Z,79.10
2022-10-23T09:13:22.572Z,79.27
2022-10-23T09:15:31.049Z,78.65
2022-10-23T09:17:37.906Z,78.33
2022-10-23T09:19:42.916Z,77.72
2022-10-23T09:21:49.728Z,77.47
2022-10-23T09:23:52.567Z,77.38
2022-10-23T09:25:56.916Z,75.95
2022-10-23T09:28:05.238Z,75.45
2022-10-23T09:30:09.929Z,74.96
2022-10-23T09:32:13.064Z,75.20
2022-10-23T09:34:20.431Z,75.04
2022-10-23T09:36:27.351Z,74.30
2022-10-23T09:38:32.584Z,74.25
2022-10-23T09:40:41.500Z,73.79
2022-10-23T09:42:59.465Z,74.12
2022-10-23T09:45:02.587Z,74.52
2022-10-23T09:47:12.000Z,74.57
2022-10-23T09:49:23.760Z,74.75
2022-10-23T09:51:28.077Z,75.02
2022-10-23T09:53:35.049Z,74.89
2022-10-23T09:55:37.851Z,74.36
2022-10-23T09:57:43.824Z,74.53
2022-10-23T09:59:52.649Z,74.53
2022-10-23T10:01:58.433Z,74.98
2022-10-23T10:04:33.276Z,74.77
2022-10-23T10:06:37.603Z,74.70
2022-10-23T10:08:46.145Z,73.59
2022-10-23T10:10:53.011Z,73.87
2022-10-23T10:13:00.040Z,74.06
2022-10-23T10:15:11.938Z,73.84
2022-10-23T10:17:23.451Z,74.14
2022-10-23T10:19:37.569Z,74.55
2022-10-23T10:21:47.986Z,74.67
2022-10-23T10:24:01.217Z,75.12
2022-10-23T10:26:12.105Z,75.21
2022-10-23T10:28:30.642Z,74.89
2022-10-23T10:30:45.568Z,74.30
2022-10-23T10:32:55.419Z,74.59
2022-10-23T10:35:05.781Z,74.64
2022-10-23T10:37:22.374Z,74.24
2022-10-23T10:39:33.738Z,74.70
2022-10-23T10:41:45.990Z,75.04
2022-10-23T10:44:01.398Z,74.39
2022-10-23T10:46:12.364Z,75.04
2022-10-23T10:48:32.280Z,74.45
2022-10-23T10:51:06.553Z,74.45
2022-10-23T10:53:29.261Z,74.12
2022-10-23T10:55:36.720Z,73.44
2022-10-23T10:57:43.078Z,72.63
2022-10-23T10:59:52.263Z,72.12
2022-10-23T11:02:03.786Z,71.94
2022-10-23T11:04:14.436Z,71.76
2022-10-23T11:06:21.685Z,72.19
2022-10-23T11:08:44.479Z,72.47
2022-10-23T11:11:01.247Z,72.56
2022-10-23T11:13:05.504Z,71.41
2022-10-23T11:15:15.110Z,71.51
2022-10-23T11:17:24.153Z,71.46
2022-10-23T11:19:30.243Z,70.74
2022-10-23T11:21:38.957Z,71.01
2022-10-23T11:23:59.599Z,70.00
2022-10-23T11:26:19.748Z,68.42
2022-10-23T11:28:41.330Z,68.12
2022-10-23T11:31:00.703Z,69.06
2022-10-23T11:33:35.932Z,68.09
2022-10-23T11:36:01.922Z,68.50
2022-10-23T11:38:16.603Z,67.87
2022-10-23T11:40:25.960Z,67.51
2022-10-23T11:42:32.685Z,67.35
2022-10-23T11:44:44.570Z,67.05
2022-10-23T11:47:01.745Z,67.32
2022-10-23T11:49:06.721Z,66.71
2022-10-23T11:51:28.966Z,66.07
2022-10-23T11:53:40.472Z,67.27
2022-10-23T11:55:58.289Z,66.40
2022-10-23T11:58:14.797Z,66.85
2022-10-23T12:00:23.236Z,66.58
2022-10-23T12:02:32.800Z,66.25
2022-10-23T12:04:41.617Z,66.17
2022-10-23T12:06:47.912Z,66.30
2022-10-23T12:08:57.357Z,65.74
2022-10-23T12:11:01.700Z,65.26
2022-10-23T12:13:06.953Z,65.09
2022-10-23T12:15:20.758Z,65.02
2022-10-23T12:17:33.463Z,65.52
2022-10-23T12:19:48.626Z,65.53
2022-10-23T12:21:53.706Z,65.26
2022-10-23T12:24:10.315Z,64.75
2022-10-23T12:26:32.535Z,64.71
2022-10-23T12:28:41.735Z,65.65
2022-10-23T12:30:51.828Z,64.93
2022-10-23T12:33:07.444Z,65.29
2022-10-23T12:35:29.613Z,65.20
2022-10-23T12:38:06.110Z,65.40
2022-10-23T12:40:10.967Z,64.69
2022-10-23T12:42:21.935Z,65.25
2022-10-23T12:44:26.179Z,64.15
2022-10-23T12:46:34.974Z,65.21
2022-10-23T12:48:49.387Z,64.29
2022-10-23T12:50:53.860Z,64.36
2022-10-23T12:52:59.026Z,64.87
2022-10-23T12:55:12.319Z,64.69
2022-10-23T12:57:22.673Z,62.87
2022-10-23T12:59:29.048Z,63.74
2022-10-23T13:01:33.530Z,63.13
2022-10-23T13:03:36.959Z,62.52
2022-10-23T13:05:39.854Z,62.02
2022-10-23T13:07:46.611Z,61.29
2022-10-23T13:09:51.764Z,61.64
2022-10-23T13:12:09.440Z,61.60
2022-10-23T13:14:14.599Z,61.77
2022-10-23T13:16:19.236Z,61.59
2022-10-23T13:18:22.153Z,61.88
2022-10-23T13:20:27.682Z,62.66
2022-10-23T13:22:30.655Z,62.05
2022-10-23T13:24:33.515Z,61.53
2022-10-23T13:26:42.807Z,61.79
2022-10-23T13:28:46.671Z,62.43
2022-10-23T13:31:01.769Z,63.85
2022-10-23T13:33:15.483Z,62.71
2022-10-23T13:35:22.659Z,62.99
2022-10-23T13:37:27.239Z,63.67
2022-10-23T13:39:32.616Z,64.00
2022-10-23T13:41:38.238Z,63.92
2022-10-23T13:43:41.588Z,64.00
2022-10-23T13:45:44.377Z,64.20
2022-10-23T13:47:48.715Z,64.54
2022-10-23T13:49:51.541Z,65.12
2022-10-23T13:51:56.222Z,65.40
2022-10-23T13:53:58.988Z,64.69
2022-10-23T13:56:01.769Z,64.83
2022-10-23T13:58:04.542Z,64.82
2022-10-23T14:00:09.048Z,64.99
2022-10-23T14:02:21.002Z,65.57
2022-10-23T14:04:25.203Z,65.38
2022-10-23T14:06:28.209Z,64.97
2022-10-23T14:08:31.014Z,65.06
2022-10-23T14:10:34.946Z,65.85
2022-10-23T14:12:41.483Z,65.99
2022-10-23T14:14:44.521Z,65.86
2022-10-23T14:16:47.406Z,65.82
2022-10-23T14:18:50.630Z,66.08
2022-10-23T14:20:54.810Z,66.08
2022-10-23T14:22:57.691Z,65.92
2022-10-23T14:25:00.474Z,65.96
2022-10-23T14:27:03.342Z,65.90
2022-10-23T14:29:09.846Z,65.77
2022-10-23T14:31:18.489Z,65.96
2022-10-23T14:33:21.132Z,66.44
2022-10-23T14:35:25.493Z,66.93
2022-10-23T14:37:30.694Z,66.69
2022-10-23T14:39:33.567Z,66.53
2022-10-23T14:41:37.243Z,66.99
2022-10-23T14:43:40.046Z,67.36
2022-10-23T14:45:42.807Z,67.11
2022-10-23T14:47:46.323Z,66.69
2022-10-23T14:49:53.442Z,67.03
2022-10-23T14:51:56.262Z,67.26
2022-10-23T14:54:03.337Z,66.95
2022-10-23T14:56:06.913Z,66.96
2022-10-23T14:58:09.836Z,67.26
2022-10-23T15:00:14.032Z,67.10
2022-10-23T15:02:17.964Z,67.36
2022-10-23T15:04:21.618Z,67.10
2022-10-23T15:06:25.004Z,67.76
2022-10-23T15:08:27.925Z,67.33
2022-10-23T15:10:32.015Z,67.62
2022-10-23T15:12:35.446Z,67.71
2022-10-23T15:14:38.187Z,67.84
2022-10-23T15:16:42.298Z,68.22
2022-10-23T15:18:45.143Z,68.44
2022-10-23T15:20:52.831Z,68.47
2022-10-23T15:22:55.556Z,68.71
2022-10-23T15:25:17.930Z,68.69
2022-10-23T15:27:22.267Z,68.57
2022-10-23T15:29:25.078Z,68.34
2022-10-23T15:31:55.404Z,67.99
2022-10-23T15:33:58.617Z,68.42
2022-10-23T15:36:01.386Z,68.53
2022-10-23T15:38:04.192Z,68.37
2022-10-23T15:40:10.636Z,68.69
2022-10-23T15:42:13.609Z,68.79
2022-10-23T15:44:19.947Z,68.52
2022-10-23T15:46:22.689Z,68.86
2022-10-23T15:48:25.463Z,69.11
2022-10-23T15:50:28.381Z,69.25
2022-10-23T15:52:31.142Z,69.44
2022-10-23T15:54:33.962Z,69.69
2022-10-23T15:56:36.954Z,69.78
2022-10-23T15:58:39.874Z,69.61
2022-10-23T16:00:43.959Z,69.79
2022-10-23T16:02:46.999Z,70.25
2022-10-23T16:04:50.391Z,70.43
2022-10-23T16:06:53.236Z,70.58
2022-10-23T16:08:56.028Z,70.83
2022-10-23T16:10:59.588Z,70.86
2022-10-23T16:13:02.355Z,71.05
2022-10-23T16:15:07.838Z,71.19
2022-10-23T16:17:13.131Z,71.20
2022-10-23T16:19:15.986Z,71.46
2022-10-23T16:21:23.095Z,71.47
2022-10-23T16:23:28.105Z,71.69
2022-10-23T16:25:30.852Z,71.77
2022-10-23T16:27:33.689Z,71.99
2022-10-23T16:29:36.653Z,72.70
2022-10-23T16:31:39.432Z,72.85
2022-10-23T16:33:43.636Z,72.43
2022-10-23T16:35:46.525Z,72.82
2022-10-23T16:37:54.242Z,72.72
2022-10-23T16:39:57.563Z,72.83
2022-10-23T16:42:19.126Z,73.39
2022-10-23T16:44:45.067Z,73.55
2022-10-23T16:46:47.796Z,73.29
2022-10-23T16:48:52.893Z,73.14
2022-10-23T16:50:55.717Z,73.71
2022-10-23T16:52:58.488Z,73.53
2022-10-23T16:55:01.638Z,74.39
2022-10-23T16:57:04.650Z,74.78
2022-10-23T16:59:07.836Z,74.88
2022-10-23T17:01:16.685Z,74.53
2022-10-23T17:03:19.528Z,74.29
2022-10-23T17:05:23.730Z,74.81
2022-10-23T17:07:26.571Z,75.31
2022-10-23T17:09:31.196Z,75.02
2022-10-23T17:11:36.547Z,74.64
2022-10-23T17:13:42.236Z,74.32
2022-10-23T17:15:45.013Z,74.48
2022-10-23T17:17:47.857Z,74.54
2022-10-23T17:19:50.654Z,74.90
2022-10-23T17:21:56.002Z,74.79
2022-10-23T17:26:08.063Z,75.15
2022-10-23T17:28:10.829Z,75.45
2022-10-23T17:30:14.288Z,75.57
2022-10-23T17:32:17.140Z,75.35
2022-10-23T17:34:22.689Z,75.76
2022-10-23T17:36:26.923Z,76.39
2022-10-23T17:38:31.139Z,76.47
2022-10-23T17:40:34.801Z,76.72
2022-10-23T17:42:37.573Z,76.59
2022-10-23T17:44:40.307Z,77.28
2022-10-23T17:46:43.116Z,77.64
2022-10-23T17:48:45.977Z,78.31
2022-10-23T17:50:48.809Z,78.81
2022-10-23T17:52:52.232Z,79.13
2022-10-23T17:54:56.349Z,79.52
2022-10-23T17:56:59.237Z,78.90
2022-10-23T17:59:04.241Z,79.34
2022-10-23T18:01:08.178Z,79.65
2022-10-23T18:03:11.046Z,79.95
2022-10-23T18:05:13.771Z,79.94
2022-10-23T18:07:16.602Z,79.92
2022-10-23T18:09:19.442Z,79.90
2022-10-23T18:11:25.359Z,79.36
2022-10-23T18:13:28.149Z,78.87
2022-10-23T18:15:30.986Z,78.93
2022-10-23T18:17:34.855Z,79.28
2022-10-23T18:19:37.561Z,79.72
2022-10-23T18:21:40.384Z,79.63
2022-10-23T18:23:43.788Z,79.93
2022-10-23T18:25:46.830Z,80.48
2022-10-23T18:27:51.002Z,80.39
2022-10-23T18:29:54.009Z,80.90
2022-10-23T18:31:56.812Z,81.10
2022-10-23T18:34:01.409Z,80.67
2022-10-23T18:36:05.448Z,80.70
2022-10-23T18:38:09.728Z,80.26
2022-10-23T18:40:14.094Z,80.51
2022-10-23T18:42:16.897Z,80.47
2022-10-23T18:44:22.766Z,80.02
2022-10-23T18:46:25.596Z,80.15
2022-10-23T18:48:28.438Z,80.31
2022-10-23T18:50:31.316Z,79.96
2022-10-23T18:52:34.082Z,80.53
2022-10-23T18:54:36.878Z,81.09
2022-10-23T18:56:39.823Z,80.30
2022-10-23T18:58:43.111Z,80.46
2022-10-23T19:00:47.301Z,80.81
2022-10-23T19:02:52.347Z,81.02
2022-10-23T19:04:55.707Z,81.11
2022-10-23T19:06:58.572Z,80.62
2022-10-23T19:09:01.395Z,80.85
2022-10-23T19:11:05.076Z,80.87
2022-10-23T19:13:08.165Z,81.34
2022-10-23T19:15:11.322Z,81.47
2022-10-23T19:17:19.543Z,80.89
2022-10-23T19:19:25.364Z,81.03
2022-10-23T19:21:31.632Z,81.41
2022-10-23T19:23:36.291Z,81.43
2022-10-23T19:25:39.442Z,81.26
2022-10-23T19:27:44.174Z,81.59
2022-10-23T19:29:50.422Z,81.35
2022-10-23T19:31:53.976Z,81.65
2022-10-23T19:33:58.134Z,81.62
2022-10-23T19:36:05.226Z,81.44
2022-10-23T19:38:08.489Z,82.19
2022-10-23T19:40:12.572Z,82.28
2022-10-23T19:42:15.381Z,82.29
2022-10-23T19:44:19.027Z,82.56
2022-10-23T19:46:21.977Z,82.50
2022-10-23T19:48:24.819Z,82.20
2022-10-23T19:50:29.056Z,82.56
2022-10-23T19:52:31.813Z,82.34
2022-10-23T19:54:34.662Z,82.17
2022-10-23T19:56:38.108Z,82.40
2022-10-23T19:58:41.412Z,82.36
2022-10-23T20:00:44.134Z,81.88
2022-10-23T20:02:49.109Z,82.09
2022-10-23T20:04:54.323Z,82.38
2022-10-23T20:06:58.746Z,82.37
2022-10-23T20:09:02.427Z,81.96
2022-10-23T20:11:05.484Z,82.56
2022-10-23T20:13:19.428Z,82.87
2022-10-23T20:15:23.414Z,82.82
2022-10-23T20:17:26.176Z,82.76
2022-10-23T20:19:29.508Z,83.25
2022-10-23T20:21:32.312Z,83.26
2022-10-23T20:23:36.665Z,83.21
2022-10-23T20:25:39.511Z,82.81
2022-10-23T20:27:42.822Z,82.92
2022-10-23T20:29:46.764Z,82.57
2022-10-23T20:31:49.584Z,82.83
2022-10-23T20:33:52.489Z,82.80
2022-10-23T20:38:02.886Z,83.03
2022-10-23T20:40:08.330Z,83.00
2022-10-23T20:42:11.103Z,82.77
2022-10-23T20:46:19.954Z,82.74
2022-10-23T20:48:22.716Z,82.96
2022-10-23T20:50:25.533Z,82.61
2022-10-23T20:52:30.122Z,82.67
2022-10-23T20:54:32.781Z,82.56
2022-10-23T20:56:39.011Z,82.93
2022-10-23T20:58:42.039Z,83.15
2022-10-23T21:00:44.789Z,82.98
2022-10-23T21:02:49.946Z,82.76
2022-10-23T21:04:54.933Z,82.96
2022-10-23T21:07:15.356Z,82.83
2022-10-23T21:09:18.131Z,82.94
2022-10-23T21:11:20.910Z,82.99
2022-10-23T21:13:25.120Z,82.95
2022-10-23T21:15:29.201Z,83.05
2022-10-23T21:17:35.455Z,83.01
2022-10-23T21:19:39.671Z,82.95
2022-10-23T21:21:42.858Z,83.21
2022-10-23T21:23:46.939Z,82.96
2022-10-23T21:25:49.706Z,82.68
2022-10-23T21:27:52.490Z,82.72
2022-10-23T21:29:56.601Z,82.69
2022-10-23T21:32:01.485Z,82.79
2022-10-23T21:34:04.967Z,82.76
2022-10-23T21:36:13.835Z,82.76
2022-10-23T21:38:16.921Z,82.56
2022-10-23T21:40:19.656Z,82.72
2022-10-23T21:42:22.521Z,82.81
2022-10-23T21:44:25.331Z,82.70
2022-10-23T21:46:30.774Z,82.64
2022-10-23T21:48:34.306Z,82.77
2022-10-23T21:50:37.159Z,82.92
2022-10-23T21:52:40.214Z,82.93
2022-10-23T21:54:42.983Z,83.31
2022-10-23T21:56:47.950Z,83.15
2022-10-23T21:58:50.705Z,82.92
2022-10-23T22:00:53.477Z,83.13
2022-10-23T22:02:57.558Z,83.18
2022-10-23T22:05:00.307Z,82.79
2022-10-23T22:07:03.651Z,83.20
2022-10-23T22:09:07.332Z,83.25
2022-10-23T22:11:11.448Z,83.25
2022-10-23T22:13:14.235Z,83.05
2022-10-23T22:15:17.145Z,82.88
2022-10-23T22:17:19.892Z,83.14
2022-10-23T22:19:24.144Z,83.28
2022-10-23T22:21:28.870Z,83.04
2022-10-23T22:23:32.036Z,82.61
2022-10-23T22:25:34.792Z,82.56
2022-10-23T22:27:38.413Z,82.54
2022-10-23T22:29:41.359Z,82.65
2022-10-23T22:31:47.234Z,82.24
2022-10-23T22:33:53.988Z,82.01
2022-10-23T22:36:03.175Z,81.97
2022-10-23T22:38:06.089Z,82.08
2022-10-23T22:40:09.998Z,81.96
2022-10-23T22:42:12.783Z,81.94
2022-10-23T22:44:16.067Z,81.64
2022-10-23T22:46:19.865Z,81.51
2022-10-23T22:48:22.614Z,80.70
2022-10-23T22:50:25.402Z,81.21
2022-10-23T22:52:29.491Z,81.32
2022-10-23T22:54:32.455Z,81.23
2022-10-23T22:56:35.920Z,81.63
2022-10-23T22:58:38.917Z,81.33
2022-10-23T23:00:43.629Z,81.59
2022-10-23T23:02:46.569Z,81.42
2022-10-23T23:04:49.375Z,81.47
2022-10-23T23:06:52.115Z,81.39
2022-10-23T23:08:56.535Z,81.26
2022-10-23T23:11:00.173Z,81.41
2022-10-23T23:13:02.878Z,81.55
2022-10-23T23:15:06.428Z,81.30
2022-10-23T23:17:10.019Z,81.42
2022-10-23T23:19:13.083Z,81.53
2022-10-23T23:21:16.425Z,81.04
2022-10-23T23:23:19.828Z,81.29
2022-10-23T23:25:23.903Z,81.25
2022-10-23T23:27:27.084Z,81.21
2022-10-23T23:29:29.879Z,81.18
2022-10-23T23:31:32.701Z,81.18
2022-10-23T23:33:36.053Z,80.73
2022-10-23T23:35:40.899Z,80.64
2022-10-23T23:37:43.680Z,80.83
2022-10-23T23:39:46.463Z,80.60
2022-10-23T23:41:50.585Z,80.94
2022-10-23T23:43:54.898Z,81.22
2022-10-23T23:45:58.030Z,81.12
2022-10-23T23:48:00.751Z,80.69
2022-10-23T23:50:04.578Z,80.53
2022-10-23T23:52:07.387Z,80.30
2022-10-23T23:54:13.123Z,80.20
2022-10-23T23:56:16.236Z,80.20
2022-10-23T23:58:20.413Z,79.66
